Ewen, MI

2:27 PM EDT on May 29, 2015 (GMT -0400)
Eagle River Union | | Change Station
CLOSE
Current Station
Airport
Location: Eagle River,
Elevation: 1640 ft
Nearby Weather Stations

Elev 1640 ft 45.93 °N, 89.27 °W | Updated 17 minutes ago

Overcast
Overcast
66 °F
Feels Like 66 °F
N
9
Wind Variable Wind from WSW

Today
High -- | Low -- °F
--% Chance of Precip.
Yesterday
High -- | Low -- °F
Precip. -- in
6:10 AM 9:40 PM
Waxing Gibbous, 85% visible
Pressure 29.91 in
Visibility 3.0 miles
Clouds Scattered Clouds 2100 ft
Mostly Cloudy 2800 ft
Overcast 5000 ft
Dew Point 64 °F
Humidity 94%
Rainfall 0.11 in
Snow Depth Not available.
UV 3 out of 12
Pollen 2.40 out of 12
Air Quality Not available.
Flu Activity Sporadic
METAR KEGV 291810Z AUTO 24008KT 3SM -RA SCT021 BKN028 OVC050 19/18 A2991 RMK AO2 P0011 T01880179

More Conditions Fewer Conditions

Pressure 29.91 in
Visibility 3.0 miles
Clouds Scattered Clouds 2100 ft
Mostly Cloudy 2800 ft
Overcast 5000 ft
Dew Point 64 °F
Humidity 94%
Rainfall 0.11 in
Snow Depth Not available.
UV 3 out of 12
Pollen 2.40 out of 12
Air Quality Not available.
Flu Activity Sporadic
METAR KEGV 291810Z AUTO 24008KT 3SM -RA SCT021 BKN028 OVC050 19/18 A2991 RMK AO2 P0011 T01880179

More Conditions Fewer Conditions

10-Day Weather Forecast

Almanac

Astronomy

May. 29, 2015 Rise Set
Actual Time
Civil Twilight
Nautical Twilight
Astronomical Twilight
Moon
Length of Visible Light
Length of Day
Tomorrow will be .
, % of the Moon is Illuminated

Today's Extremes

State Highs State Lows

Community

WunderPhotos

Upload Photos

1,825,321 photos uploaded!

WunderBlogs® & News

Nearby

Air Quality

  Air Quality AQ Index Pollutant
Not available.

Snow Depth

Station Depth Elevation

Earthquake Activity

City Distance Mag. Time & Date
Minimum magnitude displayed is 2.5.

Coastal Water Temperatures

Place Temperature

Stations

Nearby Weather Stations

Station Location Temp. Windchill Dew Point Humidity Wind Precip. Elev Updated Type